sensor_id;sensor_type;location;lat;lon;timestamp;pressure;altitude;pressure_sealevel;temperature;humidity
52975;BME280;38839;45.186;5.720;2023-02-11T00:01:18;101224.81;;;2.25;59.58
52975;BME280;38839;45.186;5.720;2023-02-11T00:03:44;101229.78;;;2.22;59.21
52975;BME280;38839;45.186;5.720;2023-02-11T00:06:10;101232.16;;;2.19;59.31
52975;BME280;38839;45.186;5.720;2023-02-11T00:08:35;101226.22;;;2.20;59.58
52975;BME280;38839;45.186;5.720;2023-02-11T00:11:00;101229.78;;;2.22;59.67
52975;BME280;38839;45.186;5.720;2023-02-11T00:13:26;101233.72;;;2.17;60.18
52975;BME280;38839;45.186;5.720;2023-02-11T00:15:51;101236.91;;;2.13;60.06
52975;BME280;38839;45.186;5.720;2023-02-11T00:18:17;101238.88;;;2.17;59.94
52975;BME280;38839;45.186;5.720;2023-02-11T00:20:42;101238.81;;;2.15;59.85
52975;BME280;38839;45.186;5.720;2023-02-11T00:23:08;101244.03;;;2.17;60.30
52975;BME280;38839;45.186;5.720;2023-02-11T00:25:33;101238.88;;;2.17;59.81
52975;BME280;38839;45.186;5.720;2023-02-11T00:28:02;101238.69;;;2.14;60.87
52975;BME280;38839;45.186;5.720;2023-02-11T00:30:27;101241.28;;;2.14;60.78
52975;BME280;38839;45.186;5.720;2023-02-11T00:32:52;101247.13;;;2.11;61.08
52975;BME280;38839;45.186;5.720;2023-02-11T00:35:18;101241.84;;;1.96;61.86
52975;BME280;38839;45.186;5.720;2023-02-11T00:37:43;101248.97;;;1.74;63.16
52975;BME280;38839;45.186;5.720;2023-02-11T00:40:08;101250.34;;;1.69;63.55
52975;BME280;38839;45.186;5.720;2023-02-11T00:42:34;101247.59;;;1.79;63.34
52975;BME280;38839;45.186;5.720;2023-02-11T00:45:02;101241.06;;;1.84;63.10
52975;BME280;38839;45.186;5.720;2023-02-11T00:47:27;101250.28;;;1.80;63.17
52975;BME280;38839;45.186;5.720;2023-02-11T00:49:53;101249.38;;;1.80;63.53
52975;BME280;38839;45.186;5.720;2023-02-11T00:52:18;101243.94;;;1.75;63.28
52975;BME280;38839;45.186;5.720;2023-02-11T00:54:43;101240.66;;;1.78;63.11
52975;BME280;38839;45.186;5.720;2023-02-11T00:57:08;101244.22;;;1.67;63.51
52975;BME280;38839;45.186;5.720;2023-02-11T00:59:34;101247.56;;;1.66;63.32
52975;BME280;38839;45.186;5.720;2023-02-11T01:01:59;101227.38;;;1.58;64.12
52975;BME280;38839;45.186;5.720;2023-02-11T01:04:24;101235.16;;;1.47;64.22
52975;BME280;38839;45.186;5.720;2023-02-11T01:06:50;101228.25;;;1.46;64.58
52975;BME280;38839;45.186;5.720;2023-02-11T01:09:15;101216.97;;;1.44;64.45
52975;BME280;38839;45.186;5.720;2023-02-11T01:11:40;101219.75;;;1.47;65.05
52975;BME280;38839;45.186;5.720;2023-02-11T01:14:06;101230.13;;;1.48;64.72
52975;BME280;38839;45.186;5.720;2023-02-11T01:16:31;101221.84;;;1.52;64.30
52975;BME280;38839;45.186;5.720;2023-02-11T01:18:56;101225.19;;;1.51;64.57
52975;BME280;38839;45.186;5.720;2023-02-11T01:21:22;101226.41;;;1.56;64.01
52975;BME280;38839;45.186;5.720;2023-02-11T01:23:48;101230.94;;;1.60;63.79
52975;BME280;38839;45.186;5.720;2023-02-11T01:26:13;101221.66;;;1.63;63.95
52975;BME280;38839;45.186;5.720;2023-02-11T01:28:38;101223.41;;;1.64;63.58
52975;BME280;38839;45.186;5.720;2023-02-11T01:31:04;101222.44;;;1.61;63.57
52975;BME280;38839;45.186;5.720;2023-02-11T01:33:29;101224.00;;;1.59;63.48
52975;BME280;38839;45.186;5.720;2023-02-11T01:35:54;101223.19;;;1.47;64.41
52975;BME280;38839;45.186;5.720;2023-02-11T01:38:21;101229.34;;;1.49;64.30
52975;BME280;38839;45.186;5.720;2023-02-11T01:41:08;101228.34;;;1.47;64.41
52975;BME280;38839;45.186;5.720;2023-02-11T01:43:33;101226.75;;;1.49;64.72
52975;BME280;38839;45.186;5.720;2023-02-11T01:48:37;101214.59;;;1.47;64.66
52975;BME280;38839;45.186;5.720;2023-02-11T01:53:38;101212.72;;;1.44;65.12
52975;BME280;38839;45.186;5.720;2023-02-11T01:56:22;101212.50;;;1.41;64.60
52975;BME280;38839;45.186;5.720;2023-02-11T01:59:10;101206.47;;;1.40;64.64
52975;BME280;38839;45.186;5.720;2023-02-11T02:01:37;101204.72;;;1.39;64.67
52975;BME280;38839;45.186;5.720;2023-02-11T02:04:03;101208.47;;;1.45;64.54
52975;BME280;38839;45.186;5.720;2023-02-11T02:06:42;101197.47;;;1.47;64.50
52975;BME280;38839;45.186;5.720;2023-02-11T02:09:33;101195.00;;;1.49;64.59
52975;BME280;38839;45.186;5.720;2023-02-11T02:11:57;101199.47;;;1.51;64.56
52975;BME280;38839;45.186;5.720;2023-02-11T02:14:22;101189.28;;;1.53;64.66
52975;BME280;38839;45.186;5.720;2023-02-11T02:16:47;101186.00;;;1.55;64.38
52975;BME280;38839;45.186;5.720;2023-02-11T02:27:12;101182.41;;;1.27;65.55
52975;BME280;38839;45.186;5.720;2023-02-11T02:35:00;101178.06;;;1.26;65.61
52975;BME280;38839;45.186;5.720;2023-02-11T02:37:34;101185.56;;;1.23;65.16
52975;BME280;38839;45.186;5.720;2023-02-11T02:40:04;101183.97;;;1.25;65.71
52975;BME280;38839;45.186;5.720;2023-02-11T02:42:32;101177.25;;;1.27;65.29
52975;BME280;38839;45.186;5.720;2023-02-11T02:44:58;101177.94;;;1.24;66.05
52975;BME280;38839;45.186;5.720;2023-02-11T02:47:23;101179.81;;;1.27;65.63
52975;BME280;38839;45.186;5.720;2023-02-11T02:49:48;101180.63;;;1.26;65.58
52975;BME280;38839;45.186;5.720;2023-02-11T03:04:51;101166.19;;;0.64;68.01
52975;BME280;38839;45.186;5.720;2023-02-11T03:10:13;101164.34;;;0.50;68.55
52975;BME280;38839;45.186;5.720;2023-02-11T03:12:39;101159.09;;;0.48;68.21
52975;BME280;38839;45.186;5.720;2023-02-11T03:15:06;101155.78;;;0.49;68.67
52975;BME280;38839;45.186;5.720;2023-02-11T03:17:32;101153.50;;;0.54;68.17
52975;BME280;38839;45.186;5.720;2023-02-11T03:19:59;101151.66;;;0.65;67.38
52975;BME280;38839;45.186;5.720;2023-02-11T03:25:09;101152.47;;;0.89;66.41
52975;BME280;38839;45.186;5.720;2023-02-11T03:27:42;101148.44;;;0.92;66.47
52975;BME280;38839;45.186;5.720;2023-02-11T03:30:27;101148.63;;;0.95;66.27
52975;BME280;38839;45.186;5.720;2023-02-11T03:32:56;101145.94;;;0.94;67.05
52975;BME280;38839;45.186;5.720;2023-02-11T03:38:05;101142.19;;;0.89;67.54
52975;BME280;38839;45.186;5.720;2023-02-11T03:40:37;101151.94;;;0.81;68.07
52975;BME280;38839;45.186;5.720;2023-02-11T03:43:05;101147.66;;;0.82;67.59
52975;BME280;38839;45.186;5.720;2023-02-11T03:45:32;101147.19;;;0.74;67.78
52975;BME280;38839;45.186;5.720;2023-02-11T03:48:10;101149.22;;;0.66;68.25
52975;BME280;38839;45.186;5.720;2023-02-11T03:50:36;101144.84;;;0.65;68.28
52975;BME280;38839;45.186;5.720;2023-02-11T03:53:03;101150.22;;;0.68;68.19
52975;BME280;38839;45.186;5.720;2023-02-11T03:55:28;101149.97;;;0.65;68.14
52975;BME280;38839;45.186;5.720;2023-02-11T03:57:55;101150.91;;;0.66;67.97
52975;BME280;38839;45.186;5.720;2023-02-11T04:00:28;101162.09;;;0.54;68.22
52975;BME280;38839;45.186;5.720;2023-02-11T04:02:53;101156.38;;;0.58;68.22
52975;BME280;38839;45.186;5.720;2023-02-11T04:05:19;101152.69;;;0.55;68.42
52975;BME280;38839;45.186;5.720;2023-02-11T04:07:44;101148.38;;;0.54;68.57
52975;BME280;38839;45.186;5.720;2023-02-11T04:10:10;101147.69;;;0.56;68.49
52975;BME280;38839;45.186;5.720;2023-02-11T04:12:35;101142.13;;;0.50;68.74
52975;BME280;38839;45.186;5.720;2023-02-11T04:15:00;101139.00;;;0.43;68.98
52975;BME280;38839;45.186;5.720;2023-02-11T04:17:26;101142.50;;;0.43;68.83
52975;BME280;38839;45.186;5.720;2023-02-11T04:19:51;101139.09;;;0.31;70.15
52975;BME280;38839;45.186;5.720;2023-02-11T04:22:16;101149.34;;;0.31;70.44
52975;BME280;38839;45.186;5.720;2023-02-11T04:24:41;101145.09;;;0.31;70.35
52975;BME280;38839;45.186;5.720;2023-02-11T04:27:08;101142.16;;;0.38;70.10
52975;BME280;38839;45.186;5.720;2023-02-11T04:29:33;101140.38;;;0.37;70.55
52975;BME280;38839;45.186;5.720;2023-02-11T04:31:59;101133.25;;;0.33;70.35
52975;BME280;38839;45.186;5.720;2023-02-11T04:34:24;101131.25;;;0.29;70.16
52975;BME280;38839;45.186;5.720;2023-02-11T04:36:49;101129.88;;;0.34;70.43
52975;BME280;38839;45.186;5.720;2023-02-11T04:39:14;101135.03;;;0.34;70.14
52975;BME280;38839;45.186;5.720;2023-02-11T04:41:40;101129.28;;;0.25;70.15
52975;BME280;38839;45.186;5.720;2023-02-11T04:44:05;101124.69;;;0.21;70.74
52975;BME280;38839;45.186;5.720;2023-02-11T04:46:30;101127.72;;;0.15;70.57
52975;BME280;38839;45.186;5.720;2023-02-11T04:48:56;101123.03;;;0.22;70.21
52975;BME280;38839;45.186;5.720;2023-02-11T04:51:21;101124.13;;;0.25;70.53
52975;BME280;38839;45.186;5.720;2023-02-11T04:53:47;101121.56;;;0.25;70.47
52975;BME280;38839;45.186;5.720;2023-02-11T04:56:12;101119.19;;;0.28;70.16
52975;BME280;38839;45.186;5.720;2023-02-11T04:58:37;101117.06;;;0.34;69.92
52975;BME280;38839;45.186;5.720;2023-02-11T05:01:09;101125.00;;;0.37;69.76
52975;BME280;38839;45.186;5.720;2023-02-11T05:03:35;101127.31;;;0.34;69.47
52975;BME280;38839;45.186;5.720;2023-02-11T05:06:00;101128.84;;;0.19;70.14
52975;BME280;38839;45.186;5.720;2023-02-11T05:08:26;101121.09;;;-0.06;71.25
52975;BME280;38839;45.186;5.720;2023-02-11T05:10:51;101127.56;;;-0.23;72.07
52975;BME280;38839;45.186;5.720;2023-02-11T05:13:16;101128.59;;;-0.33;72.94
52975;BME280;38839;45.186;5.720;2023-02-11T05:15:42;101129.38;;;-0.34;72.96
52975;BME280;38839;45.186;5.720;2023-02-11T05:18:07;101128.69;;;-0.31;72.79
52975;BME280;38839;45.186;5.720;2023-02-11T05:20:32;101122.00;;;-0.17;72.54
52975;BME280;38839;45.186;5.720;2023-02-11T05:22:57;101121.75;;;-0.09;71.87
52975;BME280;38839;45.186;5.720;2023-02-11T05:25:23;101122.41;;;0.01;71.34
52975;BME280;38839;45.186;5.720;2023-02-11T05:27:48;101121.41;;;-0.02;71.60
52975;BME280;38839;45.186;5.720;2023-02-11T05:30:13;101122.84;;;0.07;70.90
52975;BME280;38839;45.186;5.720;2023-02-11T05:32:39;101121.41;;;-0.02;71.20
52975;BME280;38839;45.186;5.720;2023-02-11T05:35:04;101132.69;;;0.01;71.50
52975;BME280;38839;45.186;5.720;2023-02-11T05:37:29;101131.88;;;0.02;71.06
52975;BME280;38839;45.186;5.720;2023-02-11T05:39:54;101135.72;;;-0.29;72.67
52975;BME280;38839;45.186;5.720;2023-02-11T05:42:20;101131.94;;;-0.34;73.10
52975;BME280;38839;45.186;5.720;2023-02-11T05:44:45;101137.81;;;-0.23;72.97
52975;BME280;38839;45.186;5.720;2023-02-11T05:47:10;101130.25;;;-0.22;72.96
52975;BME280;38839;45.186;5.720;2023-02-11T05:49:35;101131.81;;;-0.12;72.52
52975;BME280;38839;45.186;5.720;2023-02-11T05:52:01;101140.38;;;-0.11;72.47
52975;BME280;38839;45.186;5.720;2023-02-11T05:54:26;101142.19;;;-0.10;72.24
52975;BME280;38839;45.186;5.720;2023-02-11T05:56:51;101136.06;;;-0.12;72.51
52975;BME280;38839;45.186;5.720;2023-02-11T05:59:17;101133.81;;;-0.08;72.08
52975;BME280;38839;45.186;5.720;2023-02-11T06:01:42;101127.22;;;-0.04;72.28
52975;BME280;38839;45.186;5.720;2023-02-11T06:04:07;101132.25;;;-0.06;71.94
52975;BME280;38839;45.186;5.720;2023-02-11T06:06:32;101127.09;;;-0.06;72.23
52975;BME280;38839;45.186;5.720;2023-02-11T06:08:58;101126.75;;;0.02;71.44
52975;BME280;38839;45.186;5.720;2023-02-11T06:11:23;101129.22;;;0.00;71.48
52975;BME280;38839;45.186;5.720;2023-02-11T06:13:48;101131.09;;;0.03;71.37
52975;BME280;38839;45.186;5.720;2023-02-11T06:16:13;101125.31;;;-0.07;71.54
52975;BME280;38839;45.186;5.720;2023-02-11T06:18:39;101126.00;;;-0.09;71.76
52975;BME280;38839;45.186;5.720;2023-02-11T06:21:08;101134.25;;;-0.13;71.69
52975;BME280;38839;45.186;5.720;2023-02-11T06:23:33;101129.81;;;-0.28;72.16
52975;BME280;38839;45.186;5.720;2023-02-11T06:26:02;101131.81;;;-0.35;72.27
52975;BME280;38839;45.186;5.720;2023-02-11T06:28:28;101123.34;;;-0.23;72.17
52975;BME280;38839;45.186;5.720;2023-02-11T06:30:55;101134.50;;;-0.22;72.01
52975;BME280;38839;45.186;5.720;2023-02-11T06:33:20;101125.09;;;-0.10;71.29
52975;BME280;38839;45.186;5.720;2023-02-11T06:35:46;101123.75;;;-0.05;71.56
52975;BME280;38839;45.186;5.720;2023-02-11T06:38:11;101118.84;;;-0.02;70.88
52975;BME280;38839;45.186;5.720;2023-02-11T06:40:36;101116.72;;;0.05;70.72
52975;BME280;38839;45.186;5.720;2023-02-11T06:43:01;101115.25;;;0.08;70.50
52975;BME280;38839;45.186;5.720;2023-02-11T06:45:27;101112.22;;;0.14;70.71
52975;BME280;38839;45.186;5.720;2023-02-11T06:47:52;101111.44;;;0.15;70.89
52975;BME280;38839;45.186;5.720;2023-02-11T06:50:17;101110.78;;;0.06;71.03
52975;BME280;38839;45.186;5.720;2023-02-11T06:52:43;101111.34;;;0.02;71.36
52975;BME280;38839;45.186;5.720;2023-02-11T06:55:08;101118.47;;;0.06;71.12
52975;BME280;38839;45.186;5.720;2023-02-11T06:57:33;101124.53;;;0.06;70.93
52975;BME280;38839;45.186;5.720;2023-02-11T06:59:59;101124.41;;;0.05;70.88
52975;BME280;38839;45.186;5.720;2023-02-11T07:02:24;101111.91;;;0.09;70.88
52975;BME280;38839;45.186;5.720;2023-02-11T07:04:49;101128.41;;;0.13;70.78
52975;BME280;38839;45.186;5.720;2023-02-11T07:07:14;101130.41;;;0.17;71.09
52975;BME280;38839;45.186;5.720;2023-02-11T07:09:40;101126.03;;;0.16;70.87
52975;BME280;38839;45.186;5.720;2023-02-11T07:12:05;101124.59;;;0.19;70.54
52975;BME280;38839;45.186;5.720;2023-02-11T07:14:30;101134.53;;;0.15;70.86
52975;BME280;38839;45.186;5.720;2023-02-11T07:16:55;101133.84;;;0.17;70.88
52975;BME280;38839;45.186;5.720;2023-02-11T07:19:21;101133.59;;;0.26;70.53
52975;BME280;38839;45.186;5.720;2023-02-11T07:21:46;101138.41;;;0.33;70.24
52975;BME280;38839;45.186;5.720;2023-02-11T07:24:12;101145.97;;;0.32;69.91
52975;BME280;38839;45.186;5.720;2023-02-11T07:26:38;101144.09;;;0.29;70.09
52975;BME280;38839;45.186;5.720;2023-02-11T07:29:03;101146.44;;;0.26;70.13
52975;BME280;38839;45.186;5.720;2023-02-11T07:31:28;101149.81;;;0.13;70.23
52975;BME280;38839;45.186;5.720;2023-02-11T07:33:55;101148.38;;;0.17;70.46
52975;BME280;38839;45.186;5.720;2023-02-11T07:36:21;101152.69;;;0.30;70.02
52975;BME280;38839;45.186;5.720;2023-02-11T07:38:46;101160.50;;;0.31;69.83
52975;BME280;38839;45.186;5.720;2023-02-11T07:41:13;101157.50;;;0.25;70.05
52975;BME280;38839;45.186;5.720;2023-02-11T07:43:39;101160.41;;;0.18;69.96
52975;BME280;38839;45.186;5.720;2023-02-11T07:46:05;101163.59;;;0.02;70.48
52975;BME280;38839;45.186;5.720;2023-02-11T07:48:31;101164.66;;;0.06;70.52
52975;BME280;38839;45.186;5.720;2023-02-11T07:51:03;101171.59;;;0.07;70.35
52975;BME280;38839;45.186;5.720;2023-02-11T07:53:29;101177.41;;;0.04;70.76
52975;BME280;38839;45.186;5.720;2023-02-11T07:55:54;101179.94;;;0.16;70.70
52975;BME280;38839;45.186;5.720;2023-02-11T07:58:19;101180.25;;;0.32;70.23
52975;BME280;38839;45.186;5.720;2023-02-11T08:00:44;101178.22;;;0.40;69.94
52975;BME280;38839;45.186;5.720;2023-02-11T08:03:10;101171.81;;;0.47;69.57
52975;BME280;38839;45.186;5.720;2023-02-11T08:05:36;101182.34;;;0.50;69.15
52975;BME280;38839;45.186;5.720;2023-02-11T08:08:02;101188.34;;;0.50;69.12
52975;BME280;38839;45.186;5.720;2023-02-11T08:10:27;101190.72;;;0.47;68.98
52975;BME280;38839;45.186;5.720;2023-02-11T08:12:52;101186.53;;;0.61;68.14
52975;BME280;38839;45.186;5.720;2023-02-11T08:15:19;101195.66;;;0.69;67.89
52975;BME280;38839;45.186;5.720;2023-02-11T08:17:44;101197.47;;;0.58;68.62
52975;BME280;38839;45.186;5.720;2023-02-11T08:20:09;101196.84;;;0.49;69.17
52975;BME280;38839;45.186;5.720;2023-02-11T08:22:35;101195.94;;;0.49;69.56
52975;BME280;38839;45.186;5.720;2023-02-11T08:25:01;101202.28;;;0.66;69.15
52975;BME280;38839;45.186;5.720;2023-02-11T08:27:26;101196.16;;;0.52;69.25
52975;BME280;38839;45.186;5.720;2023-02-11T08:29:55;101193.88;;;0.68;69.08
52975;BME280;38839;45.186;5.720;2023-02-11T08:32:20;101204.03;;;0.92;68.25
52975;BME280;38839;45.186;5.720;2023-02-11T08:34:49;101200.72;;;1.06;67.95
52975;BME280;38839;45.186;5.720;2023-02-11T08:37:14;101199.69;;;1.16;66.99
52975;BME280;38839;45.186;5.720;2023-02-11T08:39:39;101205.09;;;1.07;66.95
52975;BME280;38839;45.186;5.720;2023-02-11T08:42:04;101201.63;;;1.32;66.75
52975;BME280;38839;45.186;5.720;2023-02-11T08:44:30;101199.84;;;1.44;66.46
52975;BME280;38839;45.186;5.720;2023-02-11T08:46:55;101197.47;;;1.47;66.03
52975;BME280;38839;45.186;5.720;2023-02-11T08:49:20;101207.69;;;1.59;65.66
52975;BME280;38839;45.186;5.720;2023-02-11T08:51:46;101208.31;;;1.68;65.63
52975;BME280;38839;45.186;5.720;2023-02-11T08:54:11;101201.06;;;1.76;65.12
52975;BME280;38839;45.186;5.720;2023-02-11T08:56:37;101202.44;;;1.84;64.55
52975;BME280;38839;45.186;5.720;2023-02-11T08:59:02;101201.28;;;1.79;64.61
52975;BME280;38839;45.186;5.720;2023-02-11T09:01:29;101202.25;;;1.94;64.58
52975;BME280;38839;45.186;5.720;2023-02-11T09:03:54;101196.91;;;2.05;64.26
52975;BME280;38839;45.186;5.720;2023-02-11T09:06:20;101202.22;;;2.21;63.43
52975;BME280;38839;45.186;5.720;2023-02-11T09:08:47;101202.78;;;2.44;62.74
52975;BME280;38839;45.186;5.720;2023-02-11T09:11:15;101207.13;;;2.58;62.55
52975;BME280;38839;45.186;5.720;2023-02-11T09:13:43;101209.44;;;2.81;62.10
52975;BME280;38839;45.186;5.720;2023-02-11T09:16:14;101214.66;;;3.11;61.45
52975;BME280;38839;45.186;5.720;2023-02-11T09:18:40;101207.75;;;2.97;60.57
52975;BME280;38839;45.186;5.720;2023-02-11T09:21:06;101213.41;;;3.19;60.70
52975;BME280;38839;45.186;5.720;2023-02-11T09:23:32;101211.03;;;3.37;60.10
52975;BME280;38839;45.186;5.720;2023-02-11T09:26:08;101207.84;;;3.56;59.57
52975;BME280;38839;45.186;5.720;2023-02-11T09:28:33;101211.50;;;3.45;59.43
52975;BME280;38839;45.186;5.720;2023-02-11T09:31:03;101205.19;;;3.70;59.68
52975;BME280;38839;45.186;5.720;2023-02-11T09:33:28;101193.69;;;3.79;59.26
52975;BME280;38839;45.186;5.720;2023-02-11T09:35:53;101189.19;;;4.07;58.57
52975;BME280;38839;45.186;5.720;2023-02-11T09:38:19;101190.25;;;3.95;58.97
52975;BME280;38839;45.186;5.720;2023-02-11T09:40:44;101188.81;;;3.69;58.91
52975;BME280;38839;45.186;5.720;2023-02-11T09:43:52;101180.78;;;3.79;58.39
52975;BME280;38839;45.186;5.720;2023-02-11T09:45:57;101181.13;;;3.71;58.18
52975;BME280;38839;45.186;5.720;2023-02-11T09:48:23;101190.94;;;3.61;58.38
52975;BME280;38839;45.186;5.720;2023-02-11T09:50:50;101191.72;;;3.90;57.91
52975;BME280;38839;45.186;5.720;2023-02-11T09:53:19;101188.50;;;3.94;57.88
52975;BME280;38839;45.186;5.720;2023-02-11T09:55:46;101180.63;;;4.08;57.36
52975;BME280;38839;45.186;5.720;2023-02-11T09:58:14;101172.31;;;3.82;57.72
52975;BME280;38839;45.186;5.720;2023-02-11T10:00:46;101171.06;;;3.90;56.50
52975;BME280;38839;45.186;5.720;2023-02-11T10:06:01;101176.91;;;4.02;56.23
52975;BME280;38839;45.186;5.720;2023-02-11T10:08:33;101178.22;;;4.11;55.54
52975;BME280;38839;45.186;5.720;2023-02-11T10:16:14;101177.78;;;4.51;54.99
52975;BME280;38839;45.186;5.720;2023-02-11T10:21:38;101170.69;;;4.47;54.11
52975;BME280;38839;45.186;5.720;2023-02-11T10:24:11;101174.56;;;4.55;54.17
52975;BME280;38839;45.186;5.720;2023-02-11T10:26:37;101170.06;;;4.19;53.83
52975;BME280;38839;45.186;5.720;2023-02-11T10:29:05;101176.09;;;4.35;52.97
52975;BME280;38839;45.186;5.720;2023-02-11T10:31:37;101174.41;;;4.35;53.13
52975;BME280;38839;45.186;5.720;2023-02-11T10:36:30;101180.78;;;4.58;52.70
52975;BME280;38839;45.186;5.720;2023-02-11T10:39:13;101177.34;;;4.74;53.03
52975;BME280;38839;45.186;5.720;2023-02-11T10:42:00;101173.28;;;4.96;51.71
52975;BME280;38839;45.186;5.720;2023-02-11T10:44:29;101177.91;;;4.69;50.86
52975;BME280;38839;45.186;5.720;2023-02-11T10:46:55;101175.81;;;4.61;50.85
52975;BME280;38839;45.186;5.720;2023-02-11T10:49:37;101177.91;;;4.69;50.84
52975;BME280;38839;45.186;5.720;2023-02-11T10:57:21;101167.31;;;4.80;50.89
52975;BME280;38839;45.186;5.720;2023-02-11T10:59:50;101162.06;;;4.62;50.06
52975;BME280;38839;45.186;5.720;2023-02-11T11:02:22;101159.97;;;4.72;50.39
52975;BME280;38839;45.186;5.720;2023-02-11T11:04:48;101152.53;;;4.78;50.77
52975;BME280;38839;45.186;5.720;2023-02-11T11:07:15;101145.88;;;4.83;50.19
52975;BME280;38839;45.186;5.720;2023-02-11T11:10:04;101151.47;;;4.74;50.39
52975;BME280;38839;45.186;5.720;2023-02-11T11:12:32;101141.69;;;4.69;50.08
52975;BME280;38839;45.186;5.720;2023-02-11T11:17:44;101133.38;;;4.74;50.00
52975;BME280;38839;45.186;5.720;2023-02-11T11:20:23;101130.13;;;4.95;49.63
52975;BME280;38839;45.186;5.720;2023-02-11T11:22:49;101123.06;;;5.09;49.97
52975;BME280;38839;45.186;5.720;2023-02-11T11:25:27;101117.69;;;5.22;49.40
52975;BME280;38839;45.186;5.720;2023-02-11T11:27:58;101116.47;;;5.32;49.68
52975;BME280;38839;45.186;5.720;2023-02-11T11:30:26;101107.56;;;5.27;49.75
52975;BME280;38839;45.186;5.720;2023-02-11T11:32:52;101103.88;;;5.21;49.33
52975;BME280;38839;45.186;5.720;2023-02-11T11:35:23;101096.28;;;5.08;49.53
52975;BME280;38839;45.186;5.720;2023-02-11T11:37:52;101099.44;;;5.19;49.48
52975;BME280;38839;45.186;5.720;2023-02-11T11:40:24;101087.47;;;5.39;49.18
52975;BME280;38839;45.186;5.720;2023-02-11T11:45:27;101083.91;;;5.55;48.86
52975;BME280;38839;45.186;5.720;2023-02-11T11:50:46;101073.44;;;5.52;48.69
52975;BME280;38839;45.186;5.720;2023-02-11T11:53:22;101065.28;;;5.44;48.28
52975;BME280;38839;45.186;5.720;2023-02-11T11:55:56;101061.38;;;5.52;48.43
52975;BME280;38839;45.186;5.720;2023-02-11T11:58:23;101060.41;;;5.50;48.31
52975;BME280;38839;45.186;5.720;2023-02-11T12:01:01;101053.50;;;5.51;47.49
52975;BME280;38839;45.186;5.720;2023-02-11T12:03:45;101053.13;;;5.61;47.30
52975;BME280;38839;45.186;5.720;2023-02-11T12:09:11;101035.66;;;5.75;46.81
52975;BME280;38839;45.186;5.720;2023-02-11T12:19:11;101030.38;;;6.09;45.65
52975;BME280;38839;45.186;5.720;2023-02-11T12:27:01;101024.03;;;6.22;44.40
52975;BME280;38839;45.186;5.720;2023-02-11T12:29:42;101021.28;;;6.38;44.22
52975;BME280;38839;45.186;5.720;2023-02-11T12:37:28;101006.59;;;6.58;43.57
52975;BME280;38839;45.186;5.720;2023-02-11T12:42:55;101001.00;;;6.49;44.31
52975;BME280;38839;45.186;5.720;2023-02-11T12:55:51;100977.38;;;6.83;43.17
52975;BME280;38839;45.186;5.720;2023-02-11T12:58:20;100972.06;;;6.80;43.10
52975;BME280;38839;45.186;5.720;2023-02-11T13:00:55;100964.66;;;6.90;43.28
52975;BME280;38839;45.186;5.720;2023-02-11T13:03:24;100954.84;;;6.82;43.26
52975;BME280;38839;45.186;5.720;2023-02-11T13:05:56;100960.97;;;6.84;43.03
52975;BME280;38839;45.186;5.720;2023-02-11T13:08:36;100962.88;;;6.89;43.30
52975;BME280;38839;45.186;5.720;2023-02-11T13:13:37;100947.75;;;6.99;43.77
52975;BME280;38839;45.186;5.720;2023-02-11T13:16:04;100941.91;;;7.05;43.57
52975;BME280;38839;45.186;5.720;2023-02-11T13:26:15;100922.28;;;7.12;43.92
52975;BME280;38839;45.186;5.720;2023-02-11T13:28:45;100920.13;;;7.22;44.16
52975;BME280;38839;45.186;5.720;2023-02-11T13:31:11;100921.34;;;7.32;44.03
52975;BME280;38839;45.186;5.720;2023-02-11T13:33:39;100918.28;;;7.42;43.71
52975;BME280;38839;45.186;5.720;2023-02-11T13:38:32;100913.59;;;7.56;43.95
52975;BME280;38839;45.186;5.720;2023-02-11T13:41:40;100915.94;;;7.50;43.68
52975;BME280;38839;45.186;5.720;2023-02-11T13:44:03;100909.94;;;7.51;43.62
52975;BME280;38839;45.186;5.720;2023-02-11T13:49:18;100901.13;;;7.70;43.82
52975;BME280;38839;45.186;5.720;2023-02-11T13:51:44;100897.72;;;7.71;44.15
52975;BME280;38839;45.186;5.720;2023-02-11T13:54:17;100893.72;;;7.57;44.01
52975;BME280;38839;45.186;5.720;2023-02-11T13:56:45;100892.38;;;7.68;44.07
52975;BME280;38839;45.186;5.720;2023-02-11T14:05:26;100882.56;;;7.83;44.17
52975;BME280;38839;45.186;5.720;2023-02-11T14:16:20;100873.13;;;7.87;44.23
52975;BME280;38839;45.186;5.720;2023-02-11T14:24:38;100881.56;;;8.05;44.46
52975;BME280;38839;45.186;5.720;2023-02-11T14:29:17;100872.13;;;8.07;44.17
52975;BME280;38839;45.186;5.720;2023-02-11T14:32:00;100868.78;;;8.12;44.47
52975;BME280;38839;45.186;5.720;2023-02-11T14:37:02;100873.78;;;8.05;44.36
52975;BME280;38839;45.186;5.720;2023-02-11T14:42:20;100871.19;;;8.05;44.36
52975;BME280;38839;45.186;5.720;2023-02-11T14:44:47;100864.28;;;8.06;44.54
52975;BME280;38839;45.186;5.720;2023-02-11T14:47:18;100871.38;;;8.12;44.48
52975;BME280;38839;45.186;5.720;2023-02-11T14:49:44;100867.97;;;8.13;44.24
52975;BME280;38839;45.186;5.720;2023-02-11T14:52:26;100868.91;;;8.15;44.91
52975;BME280;38839;45.186;5.720;2023-02-11T14:54:55;100868.78;;;8.12;44.88
52975;BME280;38839;45.186;5.720;2023-02-11T14:57:23;100863.78;;;8.16;44.51
52975;BME280;38839;45.186;5.720;2023-02-11T14:59:56;100868.19;;;8.19;44.39
52975;BME280;38839;45.186;5.720;2023-02-11T15:02:23;100858.72;;;8.21;44.67
52975;BME280;38839;45.186;5.720;2023-02-11T15:04:51;100861.31;;;8.21;44.45
52975;BME280;38839;45.186;5.720;2023-02-11T15:07:19;100862.03;;;8.17;44.58
52975;BME280;38839;45.186;5.720;2023-02-11T15:09:45;100858.06;;;8.26;43.97
52975;BME280;38839;45.186;5.720;2023-02-11T15:12:14;100848.53;;;8.27;43.93
52975;BME280;38839;45.186;5.720;2023-02-11T15:14:44;100840.00;;;8.31;44.06
52975;BME280;38839;45.186;5.720;2023-02-11T15:17:11;100844.25;;;8.29;44.29
52975;BME280;38839;45.186;5.720;2023-02-11T15:19:38;100843.25;;;8.25;44.25
52975;BME280;38839;45.186;5.720;2023-02-11T15:22:06;100838.19;;;8.29;44.31
52975;BME280;38839;45.186;5.720;2023-02-11T15:24:34;100839.78;;;8.25;44.53
52975;BME280;38839;45.186;5.720;2023-02-11T15:27:01;100840.72;;;8.27;44.64